createdAt,value
2023-05-12T00:00:31.306Z,8.6794
2023-05-12T00:01:32.754Z,8.6586
2023-05-12T00:02:33.349Z,8.6244
2023-05-12T00:03:33.693Z,8.6657
2023-05-12T00:04:34.267Z,8.6619
2023-05-12T00:05:35.053Z,8.6369
2023-05-12T00:06:35.590Z,8.6455
2023-05-12T00:07:35.948Z,8.6934
2023-05-12T00:08:36.545Z,8.6504
2023-05-12T00:09:37.906Z,8.6875
2023-05-12T00:10:38.430Z,8.7696
2023-05-12T00:11:38.681Z,8.8704
2023-05-12T00:12:39.443Z,8.8545
2023-05-12T00:16:40.666Z,8.9154
2023-05-12T00:17:40.916Z,8.9113
2023-05-12T00:18:42.040Z,8.9184
2023-05-12T00:19:43.077Z,8.9037
2023-05-12T00:20:44.023Z,8.9042
2023-05-12T00:21:43.534Z,8.9107
2023-05-12T00:22:44.409Z,8.9055
2023-05-12T00:23:44.782Z,8.9255
2023-05-12T00:24:45.661Z,8.9092
2023-05-12T00:25:45.894Z,8.9102
2023-05-12T00:26:46.530Z,8.9016
2023-05-12T00:27:47.084Z,8.8820
2023-05-12T00:28:47.472Z,8.8686
2023-05-12T00:29:49.402Z,8.8671
2023-05-12T00:33:50.911Z,8.8174
2023-05-12T00:34:51.983Z,8.8032
2023-05-12T00:36:53.212Z,8.7713
2023-05-12T00:41:56.645Z,8.7309
2023-05-12T00:43:57.198Z,8.7466
2023-05-12T00:44:57.582Z,8.7470
2023-05-12T00:45:58.774Z,8.7256
2023-05-12T00:46:59.511Z,8.7166
2023-05-12T00:48:59.918Z,8.6827
2023-05-12T00:50:00.214Z,8.6747
2023-05-12T00:51:00.789Z,8.7041
2023-05-12T00:52:01.425Z,8.6794
2023-05-12T00:53:01.877Z,8.6746
2023-05-12T00:54:02.237Z,8.6744
2023-05-12T00:55:03.666Z,8.6573
2023-05-12T00:56:04.348Z,8.6524
2023-05-12T00:57:04.541Z,8.6585
2023-05-12T00:58:05.403Z,8.7168
2023-05-12T00:59:05.982Z,8.7477
2023-05-12T01:00:07.248Z,8.7348
2023-05-12T01:01:07.899Z,8.7403
2023-05-12T01:02:07.887Z,8.7255
2023-05-12T01:03:08.581Z,8.7311
2023-05-12T01:04:09.694Z,8.7143
2023-05-12T01:09:13.694Z,8.6042
2023-05-12T01:11:14.801Z,8.5856
2023-05-12T01:12:15.687Z,8.6211
2023-05-12T01:13:16.682Z,8.6221
2023-05-12T01:14:17.625Z,8.6544
2023-05-12T01:15:18.521Z,8.6609
2023-05-12T01:16:19.043Z,8.6417
2023-05-12T01:17:19.276Z,8.6188
2023-05-12T01:18:19.936Z,8.6081
2023-05-12T01:19:20.527Z,8.6396
2023-05-12T01:20:21.235Z,8.6540
2023-05-12T01:24:23.772Z,8.6356
2023-05-12T01:25:24.263Z,8.6280
2023-05-12T01:27:25.695Z,8.6298
2023-05-12T01:28:25.952Z,8.6512
2023-05-12T01:29:26.588Z,8.6502
2023-05-12T01:30:26.833Z,8.6290
2023-05-12T01:31:27.962Z,8.6030
2023-05-12T01:32:28.650Z,8.5766
2023-05-12T01:33:29.400Z,8.5465
2023-05-12T01:34:29.768Z,8.5424
2023-05-12T01:35:30.447Z,8.5562
2023-05-12T01:36:30.928Z,8.5947
2023-05-12T01:37:31.017Z,8.6207
2023-05-12T01:38:31.919Z,8.6502
2023-05-12T01:39:32.573Z,8.6549
2023-05-12T01:40:33.319Z,8.6472
2023-05-12T01:41:33.522Z,8.6362
2023-05-12T01:42:34.777Z,8.6347
2023-05-12T01:43:35.234Z,8.6389
2023-05-12T01:44:36.483Z,8.6287
2023-05-12T01:45:37.022Z,8.5945
2023-05-12T01:46:38.438Z,8.5848
2023-05-12T01:47:39.607Z,8.6056
2023-05-12T01:48:39.956Z,8.6271
2023-05-12T01:49:40.688Z,8.6327
2023-05-12T01:50:41.454Z,8.6466
2023-05-12T01:51:42.487Z,8.6486
2023-05-12T01:52:42.882Z,8.6566
2023-05-12T01:53:43.558Z,8.6531
2023-05-12T01:54:43.593Z,8.6390
2023-05-12T01:55:44.803Z,8.6514
2023-05-12T01:56:44.957Z,8.6509
2023-05-12T01:57:46.080Z,8.6562
2023-05-12T01:58:46.621Z,8.6536
2023-05-12T01:59:47.450Z,8.6538
2023-05-12T02:00:48.222Z,8.6487
2023-05-12T02:01:49.565Z,8.6457
2023-05-12T02:02:49.531Z,8.6367
2023-05-12T02:03:49.805Z,8.6234
2023-05-12T02:04:50.977Z,8.6232
2023-05-12T02:05:51.950Z,8.6492
2023-05-12T02:06:52.928Z,8.6567
2023-05-12T02:08:54.345Z,8.6757
2023-05-12T02:09:54.545Z,8.6686
2023-05-12T02:10:56.694Z,8.6598
2023-05-12T02:11:57.543Z,8.7021
2023-05-12T02:12:58.160Z,8.8160
2023-05-12T02:13:58.737Z,8.8320
2023-05-12T02:14:59.676Z,8.8384
2023-05-12T02:15:59.714Z,8.8631
2023-05-12T02:17:00.340Z,8.8315
2023-05-12T02:18:01.140Z,8.8287
2023-05-12T02:19:02.006Z,8.8443
2023-05-12T02:20:02.730Z,8.8490
2023-05-12T02:21:03.635Z,8.8567
2023-05-12T02:22:04.201Z,8.8579
2023-05-12T02:23:04.729Z,8.8517
2023-05-12T02:24:05.925Z,8.8414
2023-05-12T02:25:06.538Z,8.8567
2023-05-12T02:26:06.554Z,8.8774
2023-05-12T02:27:07.345Z,8.8960
2023-05-12T02:28:07.889Z,8.8956
2023-05-12T02:29:08.644Z,8.8794
2023-05-12T02:30:09.313Z,8.8851
2023-05-12T02:31:10.246Z,8.8830
2023-05-12T02:32:11.382Z,8.8686
2023-05-12T02:34:11.858Z,8.8729
2023-05-12T02:38:14.082Z,8.8486
2023-05-12T02:39:15.184Z,8.8125
2023-05-12T02:40:15.255Z,8.8161
2023-05-12T02:41:16.986Z,8.8073
2023-05-12T02:42:17.063Z,8.8217
2023-05-12T02:43:18.489Z,8.8527
2023-05-12T02:44:19.040Z,8.8603
2023-05-12T02:45:19.272Z,8.8487
2023-05-12T02:46:20.051Z,8.8183
2023-05-12T02:47:20.225Z,8.8077
2023-05-12T02:48:20.940Z,8.8128
2023-05-12T02:49:21.631Z,8.8088
2023-05-12T02:50:22.550Z,8.7647
2023-05-12T02:51:22.422Z,8.7413
2023-05-12T02:55:23.940Z,8.6885
2023-05-12T02:56:24.286Z,8.6711
2023-05-12T02:57:25.197Z,8.6612
2023-05-12T02:58:25.537Z,8.6559
2023-05-12T02:59:26.653Z,8.6576
2023-05-12T03:00:27.296Z,8.6478
2023-05-12T03:01:27.532Z,8.6496
2023-05-12T03:02:27.911Z,8.6448
2023-05-12T03:03:28.711Z,8.6251
2023-05-12T03:05:30.110Z,8.6837
2023-05-12T03:08:32.594Z,8.6670
2023-05-12T03:09:33.291Z,8.7040
2023-05-12T03:10:34.030Z,8.6737
2023-05-12T03:11:34.578Z,8.6551
2023-05-12T03:12:34.803Z,8.6442
2023-05-12T03:13:35.132Z,8.6477
2023-05-12T03:14:38.528Z,8.6689
2023-05-12T03:16:37.709Z,8.6844
2023-05-12T03:17:38.059Z,8.6670
2023-05-12T03:18:38.807Z,8.6630
2023-05-12T03:19:39.557Z,8.6698
2023-05-12T03:20:39.721Z,8.6457
2023-05-12T03:21:40.864Z,8.6299
2023-05-12T03:23:41.919Z,8.6619
2023-05-12T03:25:42.706Z,8.6428
2023-05-12T03:26:44.458Z,8.6434
2023-05-12T03:27:45.559Z,8.6520
2023-05-12T03:28:47.037Z,8.6807
2023-05-12T03:29:47.234Z,8.6660
2023-05-12T03:30:47.217Z,8.6573
2023-05-12T03:31:48.403Z,8.6548
2023-05-12T03:33:49.314Z,8.6509
2023-05-12T03:35:51.413Z,8.6147
2023-05-12T03:36:52.056Z,8.6198
2023-05-12T03:37:53.203Z,8.6222
2023-05-12T03:41:54.884Z,8.5758
2023-05-12T03:42:55.105Z,8.5813
2023-05-12T03:43:56.839Z,8.5728
2023-05-12T03:44:57.174Z,8.5728
2023-05-12T03:45:57.750Z,8.5564
2023-05-12T03:46:59.133Z,8.5417
2023-05-12T03:47:59.210Z,8.5344
2023-05-12T03:49:00.041Z,8.5296
2023-05-12T03:50:00.541Z,8.5253
2023-05-12T03:51:01.123Z,8.4943
2023-05-12T03:56:05.253Z,8.4068
2023-05-12T03:57:06.363Z,8.4582
2023-05-12T03:59:07.351Z,8.5557
2023-05-12T04:00:07.434Z,8.5703
2023-05-12T04:01:08.158Z,8.5759
2023-05-12T04:02:09.471Z,8.5787
2023-05-12T04:03:10.008Z,8.5791
2023-05-12T04:04:10.068Z,8.5968
2023-05-12T04:05:10.308Z,8.6387
2023-05-12T04:07:11.513Z,8.6702
2023-05-12T04:08:11.707Z,8.6856
2023-05-12T04:09:12.867Z,8.7073
2023-05-12T04:10:12.950Z,8.7126
2023-05-12T04:11:14.917Z,8.6790
2023-05-12T04:12:15.537Z,8.6956
2023-05-12T04:13:16.726Z,8.7095
2023-05-12T04:15:17.011Z,8.7144
2023-05-12T04:16:17.314Z,8.7387
2023-05-12T04:17:18.637Z,8.7487
2023-05-12T04:18:18.795Z,8.7807
2023-05-12T04:20:20.110Z,8.8200
2023-05-12T04:26:20.547Z,8.8047
2023-05-12T04:27:21.839Z,8.8021
2023-05-12T04:28:22.133Z,8.7923
2023-05-12T04:29:22.182Z,8.7906
2023-05-12T04:30:22.690Z,8.8210
2023-05-12T04:31:23.139Z,8.8341
2023-05-12T04:32:24.757Z,8.8555
2023-05-12T04:33:25.178Z,8.8702
2023-05-12T04:34:25.678Z,8.8738
2023-05-12T04:35:26.360Z,8.8574
2023-05-12T04:36:26.940Z,8.8281
2023-05-12T04:37:27.418Z,8.8085
2023-05-12T04:38:27.792Z,8.8051
2023-05-12T04:42:29.366Z,8.8947
2023-05-12T04:44:30.371Z,8.9614
2023-05-12T04:45:31.538Z,9.0133
2023-05-12T04:46:32.493Z,8.9427
2023-05-12T04:47:32.689Z,9.0015
2023-05-12T04:48:34.183Z,9.0113
2023-05-12T04:49:34.684Z,9.0493
2023-05-12T04:50:35.601Z,9.0871
2023-05-12T04:51:35.812Z,9.0250
2023-05-12T04:52:36.302Z,9.0442
2023-05-12T04:53:37.177Z,9.0237
2023-05-12T04:54:37.635Z,9.0615
2023-05-12T04:55:37.674Z,9.0199
2023-05-12T04:56:38.427Z,9.0197
2023-05-12T04:57:38.912Z,9.0865
2023-05-12T04:58:38.782Z,8.9709
2023-05-12T04:59:41.185Z,9.0754
2023-05-12T05:00:39.928Z,9.1432
2023-05-12T05:01:41.052Z,9.1852
2023-05-12T05:05:43.686Z,9.0966
2023-05-12T05:09:46.451Z,9.3020
2023-05-12T05:10:47.419Z,9.3301
2023-05-12T05:11:48.101Z,9.3198
2023-05-12T05:12:48.735Z,9.2684
2023-05-12T05:13:49.486Z,9.3272
2023-05-12T05:14:50.062Z,9.3277
2023-05-12T05:15:50.278Z,9.2811
2023-05-12T05:16:51.174Z,9.3502
2023-05-12T05:17:52.166Z,9.2480
2023-05-12T05:18:53.018Z,9.3907
2023-05-12T05:19:58.357Z,9.1710
2023-05-12T05:20:58.327Z,9.1869
2023-05-12T05:21:54.618Z,9.3140
2023-05-12T05:22:56.020Z,9.3042
2023-05-12T05:26:58.284Z,9.6256
2023-05-12T05:28:59.801Z,9.4433
2023-05-12T05:30:00.688Z,9.6321
2023-05-12T05:31:01.842Z,9.6282
2023-05-12T05:32:02.536Z,9.3937
2023-05-12T05:33:03.722Z,9.3603
2023-05-12T05:34:04.286Z,9.5832
2023-05-12T05:35:04.987Z,9.6677
2023-05-12T05:36:05.888Z,9.6935
2023-05-12T05:37:07.004Z,9.7873
2023-05-12T05:38:07.657Z,9.8744
2023-05-12T05:39:08.863Z,9.7693
2023-05-12T05:40:09.479Z,9.9230
2023-05-12T05:41:09.642Z,9.6902
2023-05-12T05:42:09.775Z,9.7328
2023-05-12T05:43:10.874Z,9.7355
2023-05-12T05:44:11.936Z,10.0108
2023-05-12T05:45:12.702Z,9.9174
2023-05-12T05:46:13.541Z,10.1396
2023-05-12T05:47:14.124Z,10.1822
2023-05-12T05:48:15.029Z,10.0937
2023-05-12T05:49:16.053Z,9.8638
2023-05-12T05:50:17.055Z,10.1469
2023-05-12T05:51:17.111Z,10.2915
2023-05-12T05:52:17.576Z,10.4288
2023-05-12T05:53:18.481Z,10.4441
2023-05-12T05:54:18.799Z,10.8580
2023-05-12T05:55:19.454Z,10.8337
2023-05-12T05:56:19.488Z,10.8893
2023-05-12T05:58:21.549Z,10.6415
2023-05-12T05:59:22.257Z,10.2618
2023-05-12T06:00:23.294Z,10.0451
2023-05-12T06:01:24.078Z,10.2007
2023-05-12T06:02:24.628Z,10.0582
2023-05-12T06:03:25.358Z,9.9796
2023-05-12T06:04:26.642Z,10.0462
2023-05-12T06:06:27.614Z,10.1073
2023-05-12T06:08:28.406Z,10.0821
2023-05-12T06:09:28.642Z,10.0545
2023-05-12T06:10:29.797Z,10.2026
2023-05-12T06:11:30.445Z,10.5119
2023-05-12T06:12:31.281Z,10.3472
2023-05-12T06:13:31.424Z,10.5598
2023-05-12T06:14:32.491Z,10.5334
2023-05-12T06:15:32.609Z,10.3779
2023-05-12T06:16:34.482Z,10.4180
2023-05-12T06:17:35.493Z,10.9061
2023-05-12T06:18:36.307Z,10.7784
2023-05-12T06:19:37.684Z,10.9697
2023-05-12T06:20:37.936Z,10.7216
2023-05-12T06:21:38.423Z,10.8121
2023-05-12T06:22:38.905Z,10.9722
2023-05-12T06:23:40.075Z,11.0989
2023-05-12T06:24:40.593Z,11.5721
2023-05-12T06:27:43.054Z,12.1635
2023-05-12T06:28:43.649Z,12.3981
2023-05-12T06:29:44.100Z,12.5303
2023-05-12T06:30:44.441Z,12.2940
2023-05-12T06:31:45.293Z,12.2128
2023-05-12T06:32:45.918Z,12.2189
2023-05-12T06:33:47.044Z,12.4752
2023-05-12T06:34:48.161Z,12.5899
2023-05-12T06:35:48.526Z,12.5895
2023-05-12T06:36:49.408Z,12.4649
2023-05-12T06:37:50.266Z,12.3989
2023-05-12T06:38:51.500Z,12.3000
2023-05-12T06:39:52.065Z,12.0301
2023-05-12T06:40:52.964Z,12.4138
2023-05-12T06:41:53.514Z,12.9538
2023-05-12T06:42:54.315Z,13.0603
2023-05-12T06:43:54.681Z,12.7283
2023-05-12T06:44:55.225Z,13.0117
2023-05-12T06:45:55.777Z,12.1860
2023-05-12T06:46:56.927Z,11.5887
2023-05-12T06:47:57.321Z,11.1696
2023-05-12T06:48:57.814Z,11.5858
2023-05-12T06:49:58.829Z,11.3582
2023-05-12T06:50:59.352Z,11.5112
2023-05-12T06:51:59.773Z,12.1839
2023-05-12T06:53:00.984Z,12.1759
2023-05-12T06:54:01.613Z,12.2344
2023-05-12T06:55:02.170Z,12.0630
2023-05-12T06:56:02.997Z,11.9329
2023-05-12T06:57:04.123Z,11.5555
2023-05-12T06:58:05.290Z,11.2800
2023-05-12T06:59:06.633Z,12.2045
2023-05-12T07:00:07.093Z,12.2325
2023-05-12T07:01:08.243Z,14.9963
2023-05-12T07:02:08.287Z,15.3001
2023-05-12T07:08:12.459Z,14.6636
2023-05-12T07:09:13.467Z,15.4228
2023-05-12T07:10:14.444Z,15.4384
2023-05-12T07:11:15.412Z,13.0809
2023-05-12T07:12:16.635Z,13.3849
2023-05-12T07:13:17.704Z,13.5386
2023-05-12T07:14:18.705Z,13.3621
2023-05-12T07:15:19.961Z,12.5316
2023-05-12T07:16:20.395Z,11.8366
2023-05-12T07:17:21.509Z,11.9360
2023-05-12T07:18:22.557Z,11.7700
2023-05-12T07:19:22.566Z,11.9951
2023-05-12T07:20:23.728Z,12.5406
2023-05-12T07:21:24.783Z,12.3675
2023-05-12T07:22:25.644Z,11.9610
2023-05-12T07:23:26.706Z,12.1611
2023-05-12T07:24:27.902Z,12.4846
2023-05-12T07:25:28.453Z,13.0448
2023-05-12T07:29:30.657Z,15.7422
2023-05-12T07:30:31.813Z,15.6791
2023-05-12T07:31:31.851Z,15.8462
2023-05-12T07:32:32.039Z,18.0603
2023-05-12T07:33:33.278Z,18.9462
2023-05-12T07:34:34.263Z,18.9011
2023-05-12T07:35:35.261Z,16.8977
2023-05-12T07:36:36.297Z,16.0074
2023-05-12T07:37:37.277Z,16.3288
2023-05-12T07:38:38.403Z,14.2608
2023-05-12T07:39:39.485Z,14.4792
2023-05-12T07:40:40.814Z,15.0326
2023-05-12T07:41:41.857Z,14.2950
2023-05-12T07:42:42.951Z,15.6170
2023-05-12T07:43:43.803Z,17.9958
2023-05-12T07:44:44.819Z,19.8648
2023-05-12T07:45:45.060Z,16.9053
2023-05-12T07:46:46.210Z,16.6091
2023-05-12T07:47:47.473Z,15.7992
2023-05-12T07:48:47.463Z,19.2039
2023-05-12T07:49:48.438Z,17.4853
2023-05-12T07:50:49.698Z,18.0692
2023-05-12T07:55:52.832Z,15.3829
2023-05-12T07:56:53.876Z,16.0426
2023-05-12T07:57:55.089Z,15.0272
2023-05-12T07:58:56.118Z,14.5473
2023-05-12T07:59:56.131Z,13.7959
2023-05-12T08:00:57.262Z,14.9246
2023-05-12T08:01:58.513Z,15.4124
2023-05-12T08:02:58.757Z,15.8363
2023-05-12T08:13:05.203Z,14.5171
2023-05-12T08:14:05.489Z,14.4049
2023-05-12T08:15:06.583Z,16.6043
2023-05-12T08:16:06.752Z,17.2518
2023-05-12T08:17:07.221Z,15.9420
2023-05-12T08:18:08.394Z,17.9752
2023-05-12T08:19:08.476Z,18.9862
2023-05-12T08:20:08.484Z,16.7386
2023-05-12T08:21:09.527Z,17.3598
2023-05-12T08:22:09.617Z,17.7818
2023-05-12T08:23:10.093Z,18.9764
2023-05-12T08:24:11.149Z,20.4277
2023-05-12T08:25:12.665Z,20.1359
2023-05-12T08:26:12.675Z,18.5573
2023-05-12T08:27:13.875Z,15.6545
2023-05-12T08:28:14.895Z,16.7414
2023-05-12T08:29:15.898Z,16.1760
2023-05-12T08:30:16.713Z,15.6874
2023-05-12T08:31:16.853Z,15.7448
2023-05-12T08:32:16.856Z,16.3540
2023-05-12T08:33:17.952Z,16.1063
2023-05-12T08:34:18.933Z,15.7845
2023-05-12T08:35:21.066Z,15.5858
2023-05-12T08:36:20.928Z,14.6739
2023-05-12T08:37:22.014Z,14.8003
2023-05-12T08:38:22.193Z,13.9675
2023-05-12T08:39:23.108Z,14.7607
2023-05-12T08:40:24.235Z,14.2618
2023-05-12T08:41:25.217Z,14.1095
2023-05-12T08:42:26.245Z,14.6700
2023-05-12T08:43:27.152Z,14.1515
2023-05-12T08:44:27.815Z,15.0022
2023-05-12T08:45:28.825Z,17.2317
2023-05-12T08:46:30.150Z,16.6193
2023-05-12T08:47:30.342Z,15.5474
2023-05-12T08:48:30.425Z,15.7704
2023-05-12T08:49:31.476Z,14.7996
2023-05-12T08:50:31.607Z,13.9740
2023-05-12T08:51:32.826Z,15.2973
2023-05-12T09:02:53.911Z,18.1304
2023-05-12T09:03:47.449Z,18.5870
2023-05-12T09:04:48.625Z,16.6356
2023-05-12T09:05:49.078Z,16.0958
2023-05-12T09:06:50.217Z,15.9120
2023-05-12T09:07:50.629Z,17.5520
2023-05-12T09:08:51.815Z,17.2769
2023-05-12T09:09:52.975Z,16.7537
2023-05-12T09:10:53.847Z,18.6037
2023-05-12T09:11:54.883Z,18.9890
2023-05-12T09:12:55.810Z,19.8683
2023-05-12T09:13:57.074Z,17.8329
2023-05-12T09:14:58.188Z,19.1903
2023-05-12T09:15:59.355Z,17.7680
2023-05-12T09:16:59.418Z,18.5220
2023-05-12T09:18:00.011Z,16.8116
2023-05-12T09:19:00.717Z,16.5323
2023-05-12T09:20:00.769Z,15.7783
2023-05-12T09:21:00.819Z,15.6489
2023-05-12T09:22:01.907Z,16.1174
2023-05-12T09:23:02.972Z,14.8047
2023-05-12T09:24:03.974Z,15.0556
2023-05-12T09:25:05.005Z,15.2852
2023-05-12T09:26:06.077Z,14.0640
2023-05-12T09:27:07.136Z,14.1734
2023-05-12T09:28:08.213Z,14.6010
2023-05-12T09:29:09.939Z,15.2519
2023-05-12T09:30:09.471Z,14.7273
2023-05-12T09:31:09.476Z,15.1678
2023-05-12T09:32:10.929Z,15.7260
2023-05-12T09:33:10.976Z,15.4433
2023-05-12T09:34:12.032Z,15.0566
2023-05-12T09:35:13.152Z,14.8055
2023-05-12T09:36:14.174Z,15.5073
2023-05-12T09:37:16.140Z,15.7895
2023-05-12T09:38:17.152Z,15.4073
2023-05-12T09:39:17.653Z,15.5671
2023-05-12T09:40:18.717Z,16.3215
2023-05-12T09:41:19.583Z,16.3578
2023-05-12T09:42:20.625Z,15.6379
2023-05-12T09:43:21.253Z,16.7524
2023-05-12T09:44:22.439Z,20.2265
2023-05-12T09:45:23.053Z,20.8188
2023-05-12T09:46:24.197Z,20.1826
2023-05-12T09:47:24.238Z,19.0970
2023-05-12T09:48:27.466Z,17.2623
2023-05-12T09:49:26.371Z,16.0224
2023-05-12T09:54:30.404Z,15.4133
2023-05-12T09:55:31.604Z,15.3565
2023-05-12T09:56:32.737Z,16.5263
2023-05-12T09:57:33.785Z,16.0929
2023-05-12T09:58:34.945Z,16.1313
2023-05-12T09:59:35.969Z,15.9813
2023-05-12T10:01:43.956Z,15.0541
2023-05-12T10:02:44.155Z,14.7946
2023-05-12T10:03:44.251Z,15.4818
2023-05-12T10:04:44.415Z,15.4577
2023-05-12T10:05:44.993Z,15.2096
2023-05-12T10:06:45.986Z,14.9797
2023-05-12T10:07:46.985Z,15.1770
2023-05-12T10:08:48.161Z,15.3709
2023-05-12T10:09:49.316Z,15.9207
2023-05-12T10:10:50.475Z,16.9746
2023-05-12T10:11:53.537Z,18.4822
2023-05-12T10:12:52.578Z,17.0331
2023-05-12T10:13:53.538Z,16.6060
2023-05-12T10:14:54.363Z,17.2906
2023-05-12T10:15:55.428Z,18.8101
2023-05-12T10:16:56.745Z,17.4550
2023-05-12T10:17:56.956Z,17.7391
2023-05-12T10:18:58.218Z,17.9323
2023-05-12T10:19:58.293Z,18.9113
2023-05-12T10:20:59.151Z,18.1604
2023-05-12T10:22:00.247Z,18.5660
2023-05-12T10:23:01.165Z,20.0686
2023-05-12T10:24:02.248Z,19.7027
2023-05-12T10:25:03.435Z,18.7759
2023-05-12T10:26:03.973Z,19.2164
2023-05-12T10:27:05.132Z,18.9154
2023-05-12T10:28:07.033Z,19.5438
2023-05-12T10:29:06.877Z,21.0113
2023-05-12T10:30:07.321Z,21.8249
2023-05-12T10:31:07.527Z,19.8528
2023-05-12T10:32:07.498Z,21.7255
2023-05-12T10:34:09.310Z,19.4009
2023-05-12T10:35:10.381Z,18.7392
2023-05-12T10:36:11.176Z,21.0350
2023-05-12T10:37:12.247Z,19.3724
2023-05-12T10:38:13.170Z,18.5406
2023-05-12T10:39:14.292Z,18.3934
2023-05-12T10:40:15.528Z,18.7108
2023-05-12T10:41:16.543Z,16.7758
2023-05-12T10:42:16.754Z,16.3152
2023-05-12T10:53:24.408Z,15.9222
2023-05-12T10:54:24.972Z,15.7202
2023-05-12T10:55:25.374Z,15.9869
2023-05-12T10:56:25.617Z,15.6419
2023-05-12T10:57:26.047Z,15.4918
2023-05-12T10:58:26.770Z,15.0192
2023-05-12T10:59:26.384Z,15.8622
2023-05-12T11:00:26.917Z,15.5904
2023-05-12T11:01:27.660Z,15.2457
2023-05-12T11:02:30.666Z,15.5440
2023-05-12T11:03:33.405Z,15.3364
2023-05-12T11:04:33.889Z,15.5257
2023-05-12T11:05:33.694Z,16.1143
2023-05-12T11:06:34.330Z,16.1645
2023-05-12T11:10:35.790Z,15.7295
2023-05-12T11:11:36.303Z,15.6353
2023-05-12T11:12:36.801Z,15.9457
2023-05-12T11:13:36.814Z,16.0964
2023-05-12T11:14:37.783Z,15.8415
2023-05-12T11:15:38.272Z,15.5855
2023-05-12T11:16:39.542Z,16.0491
2023-05-12T11:17:40.637Z,16.2327
2023-05-12T11:18:40.676Z,16.4344
2023-05-12T11:19:42.052Z,16.1605
2023-05-12T11:20:42.921Z,16.3539
2023-05-12T11:21:44.747Z,16.2159
2023-05-12T11:25:46.033Z,15.8574
2023-05-12T11:26:47.002Z,15.9355
2023-05-12T11:27:48.176Z,16.0733
2023-05-12T11:28:49.250Z,16.1259
2023-05-12T11:29:50.267Z,16.1880
2023-05-12T11:30:53.929Z,15.8729
2023-05-12T11:31:52.395Z,16.0644
2023-05-12T11:32:53.498Z,15.9425
2023-05-12T11:34:08.277Z,15.8671
2023-05-12T11:34:55.811Z,15.3839
2023-05-12T11:35:56.608Z,15.3672
2023-05-12T11:36:57.140Z,15.5454
2023-05-12T11:56:13.156Z,19.8735
2023-05-12T11:57:14.201Z,20.7780
2023-05-12T11:58:15.110Z,20.8810
2023-05-12T11:59:16.148Z,20.4674
2023-05-12T12:00:16.512Z,22.2455
2023-05-12T12:01:17.560Z,22.3643
2023-05-12T12:02:20.043Z,22.4123
2023-05-12T12:03:18.923Z,22.9169
2023-05-12T12:04:19.781Z,22.4469
2023-05-12T12:05:20.083Z,22.8409
2023-05-12T12:06:20.216Z,22.8546
2023-05-12T12:07:21.045Z,22.2082
2023-05-12T12:08:21.327Z,22.1025
2023-05-12T12:09:22.435Z,22.5774
2023-05-12T12:10:23.560Z,21.2471
2023-05-12T12:11:24.552Z,20.9137
2023-05-12T12:12:25.572Z,21.5673
2023-05-12T12:13:27.206Z,21.0455
2023-05-12T12:14:28.340Z,20.4536
2023-05-12T12:15:29.401Z,20.8671
2023-05-12T12:16:30.640Z,20.8703
2023-05-12T12:17:31.008Z,22.7538
2023-05-12T12:18:31.508Z,22.8160
2023-05-12T12:19:32.809Z,21.2553
2023-05-12T12:20:33.673Z,20.9329
2023-05-12T12:21:34.639Z,18.8665
2023-05-12T12:22:35.714Z,18.9897
2023-05-12T12:23:49.951Z,19.1110
2023-05-12T12:24:37.217Z,19.3991
2023-05-12T12:25:38.168Z,20.6080
2023-05-12T12:26:39.663Z,20.3274
2023-05-12T12:27:39.426Z,20.2659
2023-05-12T12:28:40.573Z,19.6968
2023-05-12T12:29:41.533Z,19.8199
2023-05-12T12:30:42.566Z,19.9072
2023-05-12T12:31:43.786Z,20.9626
2023-05-12T12:32:44.924Z,21.3421
2023-05-12T12:33:45.888Z,20.6840
2023-05-12T12:34:47.116Z,21.3729
2023-05-12T12:35:47.486Z,21.5955
2023-05-12T12:36:48.575Z,20.6925
2023-05-12T12:37:48.701Z,19.9319
2023-05-12T12:38:49.536Z,20.7750
2023-05-12T12:39:50.567Z,21.4089
2023-05-12T12:40:51.626Z,20.7714
2023-05-12T12:41:52.595Z,20.8983
2023-05-12T12:42:53.515Z,20.6618
2023-05-12T12:43:54.601Z,21.2546
2023-05-12T12:44:55.645Z,19.5012
2023-05-12T12:45:56.744Z,19.0170
2023-05-12T12:46:57.606Z,19.8145
2023-05-12T12:47:58.032Z,19.8439
2023-05-12T12:48:59.164Z,19.5766
2023-05-12T12:50:00.269Z,18.7196
2023-05-12T12:51:00.312Z,17.8104
2023-05-12T12:52:01.544Z,18.5372
2023-05-12T12:53:02.480Z,18.8639
2023-05-12T12:54:03.401Z,19.9913
2023-05-12T12:55:04.402Z,20.1579
2023-05-12T12:56:05.382Z,20.3875
2023-05-12T12:57:06.461Z,20.5992
2023-05-12T12:58:07.676Z,21.2226
2023-05-12T12:59:08.661Z,19.8198
2023-05-12T13:00:09.792Z,19.3010
2023-05-12T13:01:10.828Z,20.9250
2023-05-12T13:02:12.464Z,20.2633
2023-05-12T13:03:12.048Z,20.8489
2023-05-12T13:04:12.171Z,20.6832
2023-05-12T13:05:13.198Z,21.3781
2023-05-12T13:06:14.069Z,21.1283
2023-05-12T13:07:15.116Z,19.8890
2023-05-12T13:08:16.159Z,20.4379
2023-05-12T13:09:19.668Z,21.4018
2023-05-12T13:10:17.119Z,19.9330
2023-05-12T13:11:18.100Z,18.9616
2023-05-12T13:12:19.137Z,20.0018
2023-05-12T13:13:20.042Z,20.2070
2023-05-12T13:14:21.024Z,20.6475
2023-05-12T13:15:22.403Z,19.9601
2023-05-12T13:16:22.490Z,19.9880
2023-05-12T13:17:22.442Z,20.5000
2023-05-12T13:18:23.811Z,20.5911
2023-05-12T13:19:24.632Z,19.7641
2023-05-12T13:20:25.615Z,20.1571
2023-05-12T13:21:26.518Z,20.7824
2023-05-12T13:22:27.530Z,20.2514
2023-05-12T13:23:28.529Z,20.2146
2023-05-12T13:24:29.580Z,20.4371
2023-05-12T13:25:30.729Z,21.0153
2023-05-12T13:26:31.182Z,19.3147
2023-05-12T13:27:32.190Z,20.8937
2023-05-12T13:28:33.204Z,20.7451
2023-05-12T13:29:34.346Z,21.8046
2023-05-12T13:30:35.542Z,21.5789
2023-05-12T13:31:36.510Z,18.4599
2023-05-12T13:32:37.713Z,17.5922
2023-05-12T13:33:38.872Z,17.0241
2023-05-12T13:34:39.813Z,16.8675
2023-05-12T13:35:40.719Z,16.7644
2023-05-12T13:36:41.709Z,17.4329
2023-05-12T13:37:42.841Z,16.6956
2023-05-12T13:38:43.977Z,17.6165
2023-05-12T13:39:45.043Z,19.4894
2023-05-12T13:40:46.196Z,20.2035
2023-05-12T13:41:47.250Z,20.7051
2023-05-12T13:42:48.185Z,19.9340
2023-05-12T13:43:49.269Z,20.6456
2023-05-12T13:44:50.342Z,20.5290
2023-05-12T13:45:50.557Z,20.9638
2023-05-12T13:46:50.744Z,21.2849
2023-05-12T13:47:51.883Z,21.9050
2023-05-12T13:48:51.858Z,22.0174
2023-05-12T13:49:52.955Z,22.3876
2023-05-12T13:50:54.103Z,21.8780
2023-05-12T13:51:55.239Z,22.2021
2023-05-12T13:52:56.509Z,22.5655
2023-05-12T13:53:57.609Z,22.2456
2023-05-12T13:54:59.168Z,21.8124
2023-05-12T13:55:59.329Z,21.5969
2023-05-12T13:57:00.315Z,21.6593
2023-05-12T13:58:01.299Z,20.9984
2023-05-12T13:59:02.336Z,20.5575
2023-05-12T14:00:03.281Z,21.8391
2023-05-12T14:01:04.986Z,21.5247
2023-05-12T14:02:06.111Z,22.1387
2023-05-12T14:03:07.253Z,20.7486
2023-05-12T14:04:08.510Z,21.0768
2023-05-12T14:05:08.806Z,21.8733
2023-05-12T14:06:09.953Z,21.4911
2023-05-12T14:07:10.668Z,21.3561
2023-05-12T14:08:11.665Z,23.0922
2023-05-12T14:09:12.934Z,22.8662
2023-05-12T14:10:13.722Z,23.1934
2023-05-12T14:11:14.736Z,21.5168
2023-05-12T14:12:15.900Z,20.5050
2023-05-12T14:13:17.034Z,20.7734
2023-05-12T14:14:18.106Z,19.2460
2023-05-12T14:15:32.286Z,18.3936
2023-05-12T14:16:23.882Z,18.8506
2023-05-12T14:17:24.036Z,18.8699
2023-05-12T14:18:24.098Z,18.3108
2023-05-12T14:19:24.203Z,17.7289
2023-05-12T14:20:25.476Z,17.6803
2023-05-12T14:21:25.198Z,17.2148
2023-05-12T14:22:26.813Z,17.0916
2023-05-12T14:23:27.394Z,16.8023
2023-05-12T14:24:28.365Z,16.9708
2023-05-12T14:25:29.501Z,16.7793
2023-05-12T14:26:30.678Z,16.4891
2023-05-12T14:27:31.827Z,16.4162
2023-05-12T14:28:32.351Z,16.7663
2023-05-12T14:29:32.984Z,16.9357
2023-05-12T14:30:33.004Z,16.8831
2023-05-12T14:31:34.212Z,16.9265
2023-05-12T14:32:35.397Z,17.0045
2023-05-12T14:33:36.453Z,16.9163
2023-05-12T14:34:37.626Z,16.8855
2023-05-12T14:35:37.994Z,16.5039
2023-05-12T14:36:39.087Z,16.6337
2023-05-12T14:37:41.229Z,16.6115
2023-05-12T14:38:41.580Z,16.8344
2023-05-12T14:39:42.623Z,16.9285
2023-05-12T14:40:44.316Z,17.0561
2023-05-12T14:47:49.701Z,16.3752
2023-05-12T14:48:50.907Z,16.5549
2023-05-12T14:49:50.892Z,16.8528
2023-05-12T14:50:52.007Z,16.7107
2023-05-12T14:51:53.051Z,16.6718
2023-05-12T14:52:54.113Z,17.3688
2023-05-12T14:53:55.288Z,18.8165
2023-05-12T14:54:55.392Z,20.0738
2023-05-12T14:55:56.189Z,20.5956